Welcome to Northern Hawkes Bay. New Zealand.
PWS Header
      nz Flag



Hit Counter


W3C Valid W3C Valid logo


    Wairoa

Select any of the Stations below to visit their websites.










Historic Data from Weather Underground
Select the location of interest below. Wairoa is the default. Please have patience, this Data is slow to load in.
Northern Hawkes Bay Historical Data
Daily Summary for August 5, 2017 Units:  Metric    English   Both
« Previous Day
Next Day »
Daily Weekly Monthly Yearly Custom
  High: Low: Average:
Temperature: 16.6 °C 2.4 °C 8.1 °C
Dew Point: 9.1 °C 2.0 °C 5.2 °C
Humidity: 99% 47% 85%
Wind Speed: 15.8km/h 0.0km/h 6.1km/h
Wind Gust: 25.6km/h - -
Wind- - West
Pressure: 1027.0 hPa 1022.6 hPa -
Precipitation: 0.3 mm    
Historical Graphs
 
 
Tabular Data for August 5, 2017
Time Temperature Dew Point Pressure Wind Wind Speed Wind Gust Humidity Rainfall Rate (Hourly) solar
00:02 15.5 °C 8.7 °C 1026.0 hPa SSE 3.5 km/h 9.7 km/h 64% 0.0 mm 76 W/m2
00:07 15.4 °C 8.6 °C 1025.6 hPa Calm   6.1 km/h 64% 0.0 mm 45 W/m2
00:12 15.3 °C 8.6 °C 1026.0 hPa SSE 1.1 km/h 6.1 km/h 64% 0.0 mm 55 W/m2
00:17 15.9 °C 9.1 °C 1026.0 hPa South 1.1 km/h 6.1 km/h 64% 0.0 mm 49 W/m2
00:22 16.2 °C 8.9 °C 1026.0 hPa SSE 2.6 km/h 6.1 km/h 62% 0.0 mm 45 W/m2
00:27 15.8 °C 8.8 °C 1026.0 hPa SE 2.6 km/h 5.0 km/h 63% 0.0 mm 42 W/m2
00:32 15.5 °C 8.5 °C 1026.0 hPa SE 3.5 km/h 6.1 km/h 63% 0.0 mm 43 W/m2
00:37 15.3 °C 8.6 °C 1026.0 hPa SE 2.6 km/h 6.1 km/h 64% 0.0 mm 41 W/m2
00:42 15.1 °C 8.3 °C 1026.0 hPa SSE 5.0 km/h 7.2 km/h 64% 0.0 mm 40 W/m2
00:47 14.7 °C 8.7 °C 1026.0 hPa SSE 3.5 km/h 7.2 km/h 67% 0.0 mm 36 W/m2
00:52 14.5 °C 8.4 °C 1025.6 hPa SE 3.5 km/h 7.2 km/h 67% 0.0 mm 23 W/m2
00:57 13.6 °C 8.0 °C 1026.0 hPa SE 1.1 km/h 5.0 km/h 69% 0.0 mm 16 W/m2
01:02 12.6 °C 7.7 °C 1026.0 hPa SE 1.1 km/h 5.0 km/h 72% 0.0 mm 19 W/m2
01:07 12.7 °C 8.0 °C 1026.0 hPa ESE 1.1 km/h 3.5 km/h 73% 0.0 mm 9 W/m2
01:12 12.0 °C 7.3 °C 1026.0 hPa Calm   3.5 km/h 73% 0.0 mm 4 W/m2
01:17 11.4 °C 6.9 °C 1026.0 hPa Calm   3.5 km/h 74% 0.0 mm 2 W/m2
01:22 10.9 °C 7.1 °C 1026.0 hPa Calm   2.6 km/h 77% 0.0 mm 0 W/m2
01:27 10.5 °C 6.8 °C 1026.3 hPa Calm   2.6 km/h 78% 0.0 mm 0 W/m2
01:32 10.2 °C 6.9 °C 1026.3 hPa Calm   1.1 km/h 80% 0.0 mm 0 W/m2
01:37 10.0 °C 6.9 °C 1026.3 hPa Calm   1.1 km/h 81% 0.0 mm 0 W/m2
01:54 9.1 °C 6.6 °C 1026.3 hPa Calm   1.1 km/h 84% 0.0 mm 0 W/m2
01:59 9.0 °C 6.4 °C 1026.6 hPa NNE 1.1 km/h 2.6 km/h 84% 0.0 mm 0 W/m2
02:04 8.8 °C 6.6 °C 1026.6 hPa North 2.6 km/h 5.0 km/h 86% 0.0 mm 0 W/m2
02:09 8.6 °C 6.7 °C 1026.6 hPa NNW 1.1 km/h 5.0 km/h 88% 0.0 mm 0 W/m2
02:14 8.5 °C 6.8 °C 1026.6 hPa Calm   5.0 km/h 89% 0.0 mm 0 W/m2
02:19 8.2 °C 6.5 °C 1026.6 hPa NNW 1.1 km/h 3.5 km/h 89% 0.0 mm 0 W/m2
02:24 8.2 °C 6.7 °C 1026.6 hPa NNW 2.6 km/h 5.0 km/h 90% 0.0 mm 0 W/m2
02:29 8.2 °C 6.8 °C 1026.3 hPa NNW 1.1 km/h 5.0 km/h 91% 0.0 mm 0 W/m2
02:34 8.1 °C 6.7 °C 1026.6 hPa NNW 1.1 km/h 5.0 km/h 91% 0.0 mm 0 W/m2
02:39 8.0 °C 6.8 °C 1026.3 hPa Calm   2.6 km/h 92% 0.0 mm 0 W/m2
02:44 7.9 °C 6.8 °C 1026.6 hPa NNE 2.6 km/h 3.5 km/h 93% 0.0 mm 0 W/m2
02:49 7.8 °C 6.7 °C 1026.6 hPa North 1.1 km/h 3.5 km/h 93% 0.0 mm 0 W/m2
02:54 7.6 °C 6.6 °C 1026.3 hPa NNW 3.5 km/h 5.0 km/h 93% 0.0 mm 0 W/m2
02:59 7.4 °C 6.3 °C 1026.6 hPa NNW 2.6 km/h 5.0 km/h 93% 0.0 mm 0 W/m2
03:04 7.2 °C 6.2 °C 1026.6 hPa NNW 3.5 km/h 5.0 km/h 93% 0.0 mm 0 W/m2
03:09 7.0 °C 5.9 °C 1026.6 hPa North 2.6 km/h 3.5 km/h 93% 0.0 mm 0 W/m2
03:14 7.0 °C 6.1 °C 1026.6 hPa North 3.5 km/h 5.0 km/h 94% 0.0 mm 0 W/m2
03:19 7.0 °C 6.1 °C 1026.6 hPa North 2.6 km/h 5.0 km/h 94% 0.0 mm 0 W/m2
03:24 6.9 °C 6.2 °C 1026.6 hPa North 2.6 km/h 5.0 km/h 95% 0.0 mm 0 W/m2
03:29 6.8 °C 6.1 °C 1026.6 hPa North 2.6 km/h 5.0 km/h 95% 0.0 mm 0 W/m2
03:34 6.8 °C 6.1 °C 1026.6 hPa North 3.5 km/h 5.0 km/h 95% 0.0 mm 0 W/m2
03:39 6.7 °C 6.1 °C 1026.6 hPa North 1.1 km/h 6.1 km/h 96% 0.0 mm 0 W/m2
03:44 6.6 °C 6.0 °C 1026.6 hPa NNE 1.1 km/h 6.1 km/h 96% 0.0 mm 0 W/m2
03:49 6.6 °C 6.0 °C 1026.6 hPa NNE 3.5 km/h 5.0 km/h 96% 0.0 mm 0 W/m2
03:54 6.5 °C 5.9 °C 1026.6 hPa North 1.1 km/h 5.0 km/h 96% 0.0 mm 0 W/m2
03:59 6.3 °C 5.7 °C 1026.6 hPa Calm   5.0 km/h 96% 0.0 mm 0 W/m2
04:04 6.3 °C 5.7 °C 1026.6 hPa NNW 2.6 km/h 5.0 km/h 96% 0.0 mm 0 W/m2
04:09 6.2 °C 5.6 °C 1026.6 hPa NNW 2.6 km/h 5.0 km/h 96% 0.0 mm 0 W/m2
04:14 6.1 °C 5.5 °C 1026.6 hPa NNW 1.1 km/h 5.0 km/h 96% 0.0 mm 0 W/m2
04:19 6.0 °C 5.4 °C 1026.3 hPa Calm   3.5 km/h 96% 0.0 mm 0 W/m2
04:24 5.9 °C 5.4 °C 1026.3 hPa NNE 2.6 km/h 3.5 km/h 97% 0.0 mm 0 W/m2
04:29 6.0 °C 5.6 °C 1026.6 hPa North 2.6 km/h 5.0 km/h 97% 0.0 mm 0 W/m2
04:34 6.0 °C 5.6 °C 1026.6 hPa NNW 2.6 km/h 5.0 km/h 97% 0.0 mm 0 W/m2
04:39 6.0 °C 5.6 °C 1026.6 hPa NNW 3.5 km/h 6.1 km/h 97% 0.0 mm 0 W/m2
04:44 6.0 °C 5.6 °C 1026.3 hPa NNW 3.5 km/h 6.1 km/h 97% 0.0 mm 0 W/m2
04:49 6.0 °C 5.6 °C 1026.6 hPa NNW 2.6 km/h 5.0 km/h 97% 0.0 mm 0 W/m2
04:54 5.8 °C 5.5 °C 1026.6 hPa NNW 2.6 km/h 5.0 km/h 98% 0.0 mm 0 W/m2
04:59 5.8 °C 5.5 °C 1026.6 hPa NNW 5.0 km/h 7.2 km/h 98% 0.0 mm 0 W/m2
05:04 5.8 °C 5.5 °C 1026.6 hPa NNW 3.5 km/h 7.2 km/h 98% 0.0 mm 0 W/m2
05:09 5.8 °C 5.5 °C 1026.3 hPa NNW 2.6 km/h 7.2 km/h 98% 0.0 mm 0 W/m2
05:14 5.8 °C 5.7 °C 1026.3 hPa NNW 2.6 km/h 6.1 km/h 99% 0.0 mm 0 W/m2
05:19 5.7 °C 5.6 °C 1026.3 hPa NNW 3.5 km/h 6.1 km/h 99% 0.0 mm 0 W/m2
05:24 5.7 °C 5.6 °C 1026.6 hPa NNW 3.5 km/h 6.1 km/h 99% 0.0 mm 0 W/m2
05:29 5.7 °C 5.6 °C 1026.3 hPa North 3.5 km/h 6.1 km/h 99% 0.0 mm 0 W/m2
05:46 5.7 °C 5.6 °C 1026.6 hPa NW 3.5 km/h 6.1 km/h 99% 0.0 mm 0 W/m2
05:51 5.6 °C 5.4 °C 1026.6 hPa NW 5.0 km/h 7.2 km/h 99% 0.0 mm 0 W/m2
05:56 5.7 °C 5.6 °C 1026.6 hPa NW 6.1 km/h 9.7 km/h 99% 0.0 mm 0 W/m2
06:01 5.7 °C 5.6 °C 1026.6 hPa NW 6.1 km/h 9.7 km/h 99% 0.0 mm 0 W/m2
06:06 5.6 °C 5.4 °C 1026.6 hPa NW 5.0 km/h 9.7 km/h 99% 0.0 mm 0 W/m2
06:11 5.5 °C 5.3 °C 1026.6 hPa NW 3.5 km/h 8.7 km/h 99% 0.0 mm 0 W/m2
06:16 5.5 °C 5.3 °C 1026.6 hPa NNW 5.0 km/h 8.7 km/h 99% 0.0 mm 0 W/m2
06:21 5.4 °C 5.3 °C 1026.6 hPa NNW 6.1 km/h 8.7 km/h 99% 0.0 mm 0 W/m2
06:26 5.4 °C 5.3 °C 1027.0 hPa NW 5.0 km/h 8.7 km/h 99% 0.0 mm 0 W/m2
06:31 5.4 °C 5.3 °C 1026.6 hPa NW 7.2 km/h 11.1 km/h 99% 0.0 mm 0 W/m2
06:36 5.4 °C 5.3 °C 1027.0 hPa NNW 5.0 km/h 11.1 km/h 99% 0.0 mm 0 W/m2
06:41 5.4 °C 5.3 °C 1027.0 hPa NNW 5.0 km/h 9.7 km/h 99% 0.0 mm 0 W/m2
06:46 5.3 °C 5.2 °C 1027.0 hPa NW 5.0 km/h 8.7 km/h 99% 0.0 mm 0 W/m2
06:51 5.2 °C 5.1 °C 1027.0 hPa NW 3.5 km/h 8.7 km/h 99% 0.0 mm 0 W/m2
06:56 5.0 °C 4.8 °C 1026.6 hPa NNW 3.5 km/h 8.7 km/h 99% 0.0 mm 0 W/m2
07:01 5.0 °C 4.8 °C 1027.0 hPa NNW 3.5 km/h 7.2 km/h 99% 0.0 mm 0 W/m2
07:06 4.8 °C 4.7 °C 1026.6 hPa NNW 5.0 km/h 7.2 km/h 99% 0.0 mm 0 W/m2
07:11 4.7 °C 4.6 °C 1027.0 hPa NW 3.5 km/h 7.2 km/h 99% 0.0 mm 0 W/m2
07:16 4.7 °C 4.6 °C 1027.0 hPa NNW 6.1 km/h 8.7 km/h 99% 0.0 mm 0 W/m2
07:21 4.8 °C 4.7 °C 1027.0 hPa NNW 3.5 km/h 8.7 km/h 99% 0.0 mm 0 W/m2
07:26 4.9 °C 4.8 °C 1027.0 hPa North 1.1 km/h 8.7 km/h 99% 0.0 mm 0 W/m2
07:31 5.0 °C 4.8 °C 1026.6 hPa North 5.0 km/h 9.7 km/h 99% 0.0 mm 0 W/m2
07:36 5.0 °C 4.8 °C 1027.0 hPa North 6.1 km/h 11.1 km/h 99% 0.0 mm 0 W/m2
07:42 5.1 °C 4.9 °C 1027.0 hPa North 7.2 km/h 12.2 km/h 99% 0.0 mm 0 W/m2
07:47 5.1 °C 4.9 °C 1027.0 hPa North 3.5 km/h 12.2 km/h 99% 0.0 mm 0 W/m2
07:52 5.1 °C 4.9 °C 1027.0 hPa North 5.0 km/h 9.7 km/h 99% 0.0 mm 0 W/m2
07:57 5.1 °C 4.9 °C 1027.0 hPa North 7.2 km/h 9.7 km/h 99% 0.0 mm 0 W/m2
08:02 5.1 °C 4.9 °C 1026.6 hPa NNW 6.1 km/h 12.2 km/h 99% 0.0 mm 0 W/m2
08:07 5.1 °C 4.9 °C 1027.0 hPa NNW 7.2 km/h 13.4 km/h 99% 0.0 mm 0 W/m2
08:12 5.1 °C 4.9 °C 1027.0 hPa NW 7.2 km/h 13.4 km/h 99% 0.0 mm 0 W/m2
08:17 5.0 °C 4.8 °C 1027.0 hPa NW 5.0 km/h 13.4 km/h 99% 0.0 mm 0 W/m2
08:22 5.0 °C 4.8 °C 1027.0 hPa North 2.6 km/h 11.1 km/h 99% 0.0 mm 0 W/m2
08:27 4.9 °C 4.8 °C 1027.0 hPa NNW 6.1 km/h 12.2 km/h 99% 0.0 mm 0 W/m2
08:32 4.9 °C 4.8 °C 1027.0 hPa NNW 6.1 km/h 12.2 km/h 99% 0.0 mm 0 W/m2
08:37 4.9 °C 4.8 °C 1027.0 hPa NNW 9.7 km/h 12.2 km/h 99% 0.0 mm 0 W/m2
08:42 4.9 °C 4.8 °C 1027.0 hPa NNW 8.7 km/h 12.2 km/h 99% 0.0 mm 0 W/m2
08:47 5.0 °C 4.8 °C 1026.6 hPa NNW 3.5 km/h 12.2 km/h 99% 0.0 mm 0 W/m2
08:52 5.0 °C 4.8 °C 1026.6 hPa NNW 6.1 km/h 9.7 km/h 99% 0.0 mm 0 W/m2
08:57 5.0 °C 4.8 °C 1026.6 hPa NNW 7.2 km/h 11.1 km/h 99% 0.0 mm 0 W/m2
09:01 4.9 °C 4.8 °C 1026.6 hPa NW 7.2 km/h 12.2 km/h 99% 0.0 mm 0 W/m2
09:06 4.8 °C 4.7 °C 1026.6 hPa NNW 7.2 km/h 12.2 km/h 99% 0.0 mm 0 W/m2
09:11 4.7 °C 4.6 °C 1026.6 hPa NNW 7.2 km/h 13.4 km/h 99% 0.0 mm 0 W/m2
09:16 4.7 °C 4.6 °C 1026.6 hPa NNW 7.2 km/h 15.8 km/h 99% 0.0 mm 0 W/m2
09:21 4.6 °C 4.4 °C 1026.6 hPa NNW 8.7 km/h 15.8 km/h 99% 0.0 mm 0 W/m2
09:26 4.6 °C 4.4 °C 1026.6 hPa NNW 9.7 km/h 15.8 km/h 99% 0.0 mm 0 W/m2
09:31 4.4 °C 4.3 °C 1026.6 hPa NNW 12.2 km/h 14.8 km/h 99% 0.0 mm 0 W/m2
09:36 4.2 °C 4.1 °C 1027.0 hPa NNW 5.0 km/h 14.8 km/h 99% 0.0 mm 0 W/m2
09:41 4.4 °C 4.3 °C 1027.0 hPa NNW 7.2 km/h 13.4 km/h 99% 0.0 mm 0 W/m2
09:46 4.4 °C 4.3 °C 1027.0 hPa NNW 6.1 km/h 14.8 km/h 99% 0.0 mm 0 W/m2
09:51 4.4 °C 4.3 °C 1027.0 hPa NNW 9.7 km/h 19.5 km/h 99% 0.0 mm 0 W/m2
09:56 4.2 °C 4.1 °C 1027.0 hPa North 8.7 km/h 19.5 km/h 99% 0.0 mm 0 W/m2
10:01 4.2 °C 4.1 °C 1026.6 hPa North 8.7 km/h 14.8 km/h 99% 0.0 mm 0 W/m2
10:06 4.2 °C 4.1 °C 1026.6 hPa North 5.0 km/h 13.4 km/h 99% 0.0 mm 0 W/m2
10:11 4.2 °C 4.1 °C 1026.6 hPa NNW 6.1 km/h 13.4 km/h 99% 0.0 mm 0 W/m2
10:16 4.2 °C 4.1 °C 1026.6 hPa NNW 3.5 km/h 12.2 km/h 99% 0.0 mm 0 W/m2
10:21 4.1 °C 3.9 °C 1026.6 hPa North 6.1 km/h 11.1 km/h 99% 0.0 mm 0 W/m2
10:26 4.0 °C 3.8 °C 1026.6 hPa North 3.5 km/h 11.1 km/h 99% 0.0 mm 0 W/m2
10:31 4.0 °C 3.8 °C 1026.6 hPa NNW 8.7 km/h 12.2 km/h 99% 0.0 mm 0 W/m2
10:36 3.9 °C 3.8 °C 1026.3 hPa NNW 8.7 km/h 13.4 km/h 99% 0.0 mm 0 W/m2
10:41 3.8 °C 3.7 °C 1026.3 hPa NNW 6.1 km/h 13.4 km/h 99% 0.0 mm 0 W/m2
10:46 3.8 °C 3.7 °C 1026.3 hPa NNW 9.7 km/h 14.8 km/h 99% 0.0 mm 0 W/m2
10:51 3.7 °C 3.6 °C 1026.3 hPa NNW 8.7 km/h 14.8 km/h 99% 0.0 mm 0 W/m2
10:56 3.8 °C 3.7 °C 1026.3 hPa North 6.1 km/h 14.8 km/h 99% 0.0 mm 0 W/m2
11:01 3.8 °C 3.7 °C 1026.0 hPa North 9.7 km/h 17.2 km/h 99% 0.0 mm 0 W/m2
11:06 4.0 °C 3.8 °C 1026.0 hPa NNW 8.7 km/h 17.2 km/h 99% 0.0 mm 0 W/m2
11:11 3.8 °C 3.7 °C 1026.0 hPa North 6.1 km/h 17.2 km/h 99% 0.0 mm 0 W/m2
11:16 3.7 °C 3.6 °C 1026.0 hPa North 6.1 km/h 12.2 km/h 99% 0.0 mm 0 W/m2
11:21 3.6 °C 3.4 °C 1026.0 hPa North 6.1 km/h 9.7 km/h 99% 0.0 mm 0 W/m2
11:26 3.5 °C 3.3 °C 1026.0 hPa NNW 5.0 km/h 9.7 km/h 99% 0.0 mm 0 W/m2
11:31 3.6 °C 3.4 °C 1026.0 hPa NNW 6.1 km/h 13.4 km/h 99% 0.0 mm 0 W/m2
11:36 3.6 °C 3.4 °C 1025.6 hPa NNW 6.1 km/h 13.4 km/h 99% 0.0 mm 0 W/m2
11:41 3.5 °C 3.3 °C 1026.0 hPa NNW 3.5 km/h 11.1 km/h 99% 0.0 mm 0 W/m2
11:46 3.5 °C 3.3 °C 1025.6 hPa NNW 5.0 km/h 8.7 km/h 99% 0.0 mm 0 W/m2
11:51 3.4 °C 3.3 °C 1025.6 hPa NNW 7.2 km/h 9.7 km/h 99% 0.0 mm 0 W/m2
11:56 3.3 °C 3.2 °C 1025.3 hPa NNW 9.7 km/h 12.2 km/h 99% 0.0 mm 0 W/m2
12:01 3.3 °C 3.2 °C 1025.3 hPa NNW 7.2 km/h 13.4 km/h 99% 0.0 mm 0 W/m2
12:06 3.2 °C 3.1 °C 1025.6 hPa NW 7.2 km/h 13.4 km/h 99% 0.0 mm 0 W/m2
12:11 3.1 °C 2.9 °C 1025.6 hPa NW 5.0 km/h 13.4 km/h 99% 0.0 mm 0 W/m2
12:16 3.0 °C 2.8 °C 1025.6 hPa NNW 6.1 km/h 11.1 km/h 99% 0.0 mm 0 W/m2
12:21 3.0 °C 2.8 °C 1025.3 hPa NNW 7.2 km/h 12.2 km/h 99% 0.0 mm 0 W/m2
12:26 3.1 °C 2.9 °C 1025.6 hPa NNW 5.0 km/h 12.2 km/h 99% 0.0 mm 0 W/m2
12:31 3.2 °C 3.1 °C 1025.3 hPa North 7.2 km/h 12.2 km/h 99% 0.0 mm 0 W/m2
12:36 3.3 °C 3.2 °C 1025.3 hPa North 5.0 km/h 11.1 km/h 99% 0.0 mm 0 W/m2
12:41 3.2 °C 3.1 °C 1025.3 hPa NNW 6.1 km/h 11.1 km/h 99% 0.0 mm 0 W/m2
12:46 3.1 °C 2.9 °C 1025.3 hPa NNW 6.1 km/h 9.7 km/h 99% 0.0 mm 0 W/m2
12:51 3.0 °C 2.8 °C 1025.3 hPa NW 7.2 km/h 9.7 km/h 99% 0.0 mm 0 W/m2
12:56 2.9 °C 2.5 °C 1025.3 hPa NW 7.2 km/h 12.2 km/h 97% 0.0 mm 0 W/m2
13:01 2.9 °C 2.5 °C 1025.6 hPa NNW 8.7 km/h 12.2 km/h 97% 0.0 mm 0 W/m2
13:06 2.9 °C 2.5 °C 1025.3 hPa NW 8.7 km/h 13.4 km/h 97% 0.0 mm 0 W/m2
13:16 2.9 °C 2.5 °C 1025.3 hPa NNW 8.7 km/h 12.2 km/h 97% 0.0 mm 0 W/m2
13:26 2.8 °C 2.4 °C 1025.6 hPa NW 6.1 km/h 11.1 km/h 97% 0.0 mm 0 W/m2
13:31 2.8 °C 2.4 °C 1025.6 hPa NW 3.5 km/h 9.7 km/h 97% 0.0 mm 0 W/m2
13:36 2.8 °C 2.4 °C 1025.6 hPa NW 6.1 km/h 11.1 km/h 97% 0.0 mm 0 W/m2
13:41 2.8 °C 2.4 °C 1025.3 hPa NNW 6.1 km/h 12.2 km/h 97% 0.0 mm 0 W/m2
13:46 2.7 °C 2.3 °C 1025.3 hPa NW 8.7 km/h 12.2 km/h 97% 0.0 mm 0 W/m2
14:05 2.5 °C 2.1 °C 1024.9 hPa NW 7.2 km/h 14.8 km/h 97% 0.0 mm 0 W/m2
14:10 2.4 °C 2.0 °C 1025.3 hPa NW 8.7 km/h 14.8 km/h 97% 0.0 mm 0 W/m2
14:15 2.4 °C 2.0 °C 1025.3 hPa NW 7.2 km/h 12.2 km/h 97% 0.0 mm 0 W/m2
14:20 2.5 °C 2.1 °C 1024.9 hPa NW 6.1 km/h 12.2 km/h 97% 0.0 mm 0 W/m2
14:25 2.5 °C 2.1 °C 1025.3 hPa NW 9.7 km/h 13.4 km/h 97% 0.0 mm 0 W/m2
14:30 2.5 °C 2.1 °C 1025.3 hPa NNW 13.4 km/h 14.8 km/h 97% 0.0 mm 0 W/m2
14:35 2.5 °C 2.1 °C 1025.3 hPa NW 8.7 km/h 14.8 km/h 97% 0.0 mm 0 W/m2
14:40 2.5 °C 2.1 °C 1025.3 hPa NNW 8.7 km/h 13.4 km/h 97% 0.0 mm 0 W/m2
14:46 2.5 °C 2.1 °C 1025.6 hPa NNW 6.1 km/h 13.4 km/h 97% 0.0 mm 0 W/m2
14:51 2.5 °C 2.1 °C 1025.6 hPa NNW 6.1 km/h 13.4 km/h 97% 0.0 mm 0 W/m2
14:56 2.5 °C 2.1 °C 1025.6 hPa NNW 3.5 km/h 9.7 km/h 97% 0.0 mm 0 W/m2
15:01 2.5 °C 2.1 °C 1025.6 hPa North 7.2 km/h 13.4 km/h 97% 0.0 mm 0 W/m2
15:06 2.5 °C 2.1 °C 1025.6 hPa North 5.0 km/h 14.8 km/h 97% 0.0 mm 0 W/m2
15:11 2.4 °C 2.0 °C 1025.6 hPa North 6.1 km/h 14.8 km/h 97% 0.0 mm 1 W/m2
15:16 2.5 °C 2.1 °C 1025.6 hPa North 5.0 km/h 9.7 km/h 97% 0.0 mm 3 W/m2
15:21 2.5 °C 2.1 °C 1025.6 hPa NNW 5.0 km/h 9.7 km/h 97% 0.0 mm 6 W/m2
15:37 2.9 °C 2.5 °C 1025.6 hPa NNW 7.2 km/h 12.2 km/h 97% 0.0 mm 77 W/m2
15:42 3.0 °C 2.8 °C 1025.6 hPa NNW 8.7 km/h 12.2 km/h 99% 0.0 mm 93 W/m2
15:47 3.0 °C 2.8 °C 1025.6 hPa NNW 9.7 km/h 14.8 km/h 99% 0.0 mm 106 W/m2
15:52 3.2 °C 3.1 °C 1025.6 hPa NW 9.7 km/h 14.8 km/h 99% 0.0 mm 118 W/m2
15:57 3.3 °C 3.2 °C 1025.6 hPa NW 9.7 km/h 14.8 km/h 99% 0.0 mm 128 W/m2
16:02 3.5 °C 3.3 °C 1025.6 hPa NW 6.1 km/h 13.4 km/h 99% 0.3 mm 139 W/m2
16:07 3.7 °C 3.6 °C 1025.6 hPa NW 7.2 km/h 14.8 km/h 99% 0.3 mm 147 W/m2
16:12 3.9 °C 3.8 °C 1025.6 hPa NW 5.0 km/h 14.8 km/h 99% 0.3 mm 155 W/m2
16:17 4.1 °C 3.9 °C 1025.6 hPa NW 6.1 km/h 13.4 km/h 99% 0.3 mm 163 W/m2
16:22 4.2 °C 4.1 °C 1026.0 hPa NNW 11.1 km/h 17.2 km/h 99% 0.3 mm 170 W/m2
16:27 4.4 °C 4.3 °C 1025.6 hPa NW 7.2 km/h 17.2 km/h 99% 0.3 mm 177 W/m2
16:32 4.7 °C 4.6 °C 1026.0 hPa NNW 7.2 km/h 15.8 km/h 99% 0.3 mm 184 W/m2
16:37 4.8 °C 4.7 °C 1025.6 hPa NNW 11.1 km/h 14.8 km/h 99% 0.3 mm 190 W/m2
16:42 5.0 °C 4.7 °C 1026.0 hPa NW 8.7 km/h 13.4 km/h 98% 0.3 mm 197 W/m2
16:47 5.3 °C 4.9 °C 1025.6 hPa NNW 6.1 km/h 13.4 km/h 97% 0.3 mm 204 W/m2
16:52 5.7 °C 5.3 °C 1026.0 hPa NNW 7.2 km/h 13.4 km/h 97% 0.3 mm 213 W/m2
16:57 5.8 °C 5.1 °C 1025.6 hPa NNW 7.2 km/h 12.2 km/h 95% 0.3 mm 220 W/m2
17:02 6.0 °C 4.9 °C 1025.6 hPa NNW 9.7 km/h 13.4 km/h 93% 0.0 mm 227 W/m2
17:07 6.1 °C 4.7 °C 1026.0 hPa NNW 6.1 km/h 15.8 km/h 91% 0.0 mm 232 W/m2
17:12 6.6 °C 5.2 °C 1025.6 hPa NNW 7.2 km/h 15.8 km/h 91% 0.0 mm 250 W/m2
17:17 7.1 °C 5.6 °C 1026.0 hPa NW 3.5 km/h 11.1 km/h 90% 0.0 mm 274 W/m2
17:22 7.4 °C 5.6 °C 1025.6 hPa NNW 6.1 km/h 11.1 km/h 88% 0.0 mm 288 W/m2
17:27 7.5 °C 5.3 °C 1026.0 hPa North 6.1 km/h 12.2 km/h 86% 0.0 mm 286 W/m2
17:32 7.9 °C 5.6 °C 1025.6 hPa North 5.0 km/h 12.2 km/h 85% 0.0 mm 289 W/m2
17:37 8.2 °C 5.8 °C 1025.6 hPa North 6.1 km/h 13.4 km/h 85% 0.0 mm 282 W/m2
17:42 8.7 °C 6.3 °C 1025.6 hPa North 5.0 km/h 13.4 km/h 85% 0.0 mm 215 W/m2
17:47 9.7 °C 7.1 °C 1025.6 hPa North 3.5 km/h 12.2 km/h 84% 0.0 mm 83 W/m2
17:52 10.3 °C 7.2 °C 1025.3 hPa North 1.1 km/h 7.2 km/h 81% 0.0 mm 59 W/m2
17:57 10.7 °C 7.0 °C 1025.6 hPa NNE 2.6 km/h 8.7 km/h 78% 0.0 mm 54 W/m2
18:02 11.4 °C 7.3 °C 1025.6 hPa North 3.5 km/h 8.7 km/h 76% 0.0 mm 52 W/m2
18:07 11.7 °C 7.2 °C 1025.6 hPa North 8.7 km/h 12.2 km/h 74% 0.0 mm 51 W/m2
18:12 11.8 °C 7.1 °C 1025.6 hPa North 5.0 km/h 12.2 km/h 73% 0.0 mm 50 W/m2
18:17 12.1 °C 7.0 °C 1025.3 hPa North 7.2 km/h 12.2 km/h 71% 0.0 mm 50 W/m2
18:22 12.5 °C 7.6 °C 1025.6 hPa North 7.2 km/h 12.2 km/h 72% 0.0 mm 51 W/m2
18:27 12.8 °C 7.7 °C 1025.3 hPa North 7.2 km/h 15.8 km/h 71% 0.0 mm 54 W/m2
18:32 13.0 °C 7.0 °C 1025.3 hPa NNE 11.1 km/h 15.8 km/h 67% 0.0 mm 72 W/m2
18:37 13.2 °C 6.8 °C 1025.3 hPa NNE 5.0 km/h 18.3 km/h 65% 0.0 mm 114 W/m2
18:42 13.6 °C 7.2 °C 1025.3 hPa North 11.1 km/h 19.5 km/h 65% 0.0 mm 273 W/m2
18:47 13.6 °C 6.9 °C 1025.6 hPa NNE 3.5 km/h 19.5 km/h 64% 0.0 mm 284 W/m2
18:52 14.3 °C 7.6 °C 1025.3 hPa NNE 8.7 km/h 19.5 km/h 64% 0.0 mm 338 W/m2
18:57 14.3 °C 6.9 °C 1025.3 hPa North 11.1 km/h 15.8 km/h 61% 0.0 mm 328 W/m2
19:16 14.0 °C 6.4 °C 1024.9 hPa North 15.8 km/h 20.9 km/h 60% 0.0 mm 299 W/m2
19:21 14.1 °C 6.4 °C 1025.3 hPa North 6.1 km/h 19.5 km/h 60% 0.0 mm 294 W/m2
19:26 14.3 °C 6.4 °C 1024.9 hPa North 9.7 km/h 19.5 km/h 59% 0.0 mm 287 W/m2
19:31 14.3 °C 6.2 °C 1024.9 hPa North 9.7 km/h 23.3 km/h 58% 0.0 mm 299 W/m2
19:36 14.6 °C 6.4 °C 1024.9 hPa North 11.1 km/h 23.3 km/h 58% 0.0 mm 305 W/m2
19:41 14.9 °C 6.7 °C 1024.9 hPa North 11.1 km/h 20.9 km/h 58% 0.0 mm 297 W/m2
19:46 15.2 °C 7.0 °C 1024.6 hPa NNE 11.1 km/h 18.3 km/h 58% 0.0 mm 311 W/m2
19:51 15.6 °C 6.8 °C 1024.6 hPa NNE 12.2 km/h 20.9 km/h 56% 0.0 mm 312 W/m2
19:56 15.3 °C 6.6 °C 1024.6 hPa NNE 11.1 km/h 20.9 km/h 56% 0.0 mm 320 W/m2
20:01 15.5 °C 6.8 °C 1024.6 hPa NNE 11.1 km/h 20.9 km/h 56% 0.0 mm 286 W/m2
20:06 15.4 °C 6.4 °C 1024.6 hPa NNE 9.7 km/h 19.5 km/h 55% 0.0 mm 306 W/m2
20:11 15.9 °C 7.2 °C 1024.6 hPa North 9.7 km/h 19.5 km/h 56% 0.0 mm 300 W/m2
20:16 15.9 °C 6.9 °C 1024.3 hPa North 9.7 km/h 15.8 km/h 55% 0.0 mm 272 W/m2
20:21 15.9 °C 7.2 °C 1024.3 hPa North 11.1 km/h 15.8 km/h 56% 0.0 mm 248 W/m2
20:26 16.0 °C 6.7 °C 1024.3 hPa North 12.2 km/h 15.8 km/h 54% 0.0 mm 270 W/m2
20:31 16.0 °C 6.9 °C 1023.9 hPa North 8.7 km/h 15.8 km/h 55% 0.0 mm 254 W/m2
20:36 16.1 °C 6.8 °C 1023.9 hPa North 6.1 km/h 14.8 km/h 54% 0.0 mm 262 W/m2
20:41 16.0 °C 6.4 °C 1023.6 hPa North 9.7 km/h 20.9 km/h 53% 0.0 mm 245 W/m2
20:46 15.9 °C 6.6 °C 1023.6 hPa North 9.7 km/h 20.9 km/h 54% 0.0 mm 250 W/m2
20:51 16.1 °C 6.5 °C 1023.6 hPa NNE 8.7 km/h 18.3 km/h 53% 0.0 mm 270 W/m2
20:56 16.3 °C 6.7 °C 1023.6 hPa NNE 13.4 km/h 19.5 km/h 53% 0.0 mm 241 W/m2
21:01 16.2 °C 5.5 °C 1023.6 hPa North 12.2 km/h 20.9 km/h 49% 0.0 mm 231 W/m2
21:06 16.0 °C 5.3 °C 1023.2 hPa NW 14.8 km/h 20.9 km/h 49% 0.0 mm 284 W/m2
21:11 16.3 °C 5.6 °C 1023.2 hPa NW 12.2 km/h 20.9 km/h 49% 0.0 mm 308 W/m2
21:16 16.6 °C 5.8 °C 1023.2 hPa NNW 12.2 km/h 21.9 km/h 49% 0.0 mm 280 W/m2
21:21 16.6 °C 5.6 °C 1022.9 hPa NNW 8.7 km/h 21.9 km/h 48% 0.0 mm 233 W/m2
21:26 16.5 °C 5.2 °C 1023.2 hPa NNW 15.8 km/h 24.5 km/h 47% 0.0 mm 228 W/m2
21:31 16.3 °C 5.6 °C 1022.9 hPa NNW 12.2 km/h 24.5 km/h 49% 0.0 mm 198 W/m2
21:36 16.4 °C 5.9 °C 1022.9 hPa NW 12.2 km/h 24.5 km/h 50% 0.0 mm 174 W/m2
21:41 16.1 °C 5.9 °C 1022.9 hPa NW 13.4 km/h 19.5 km/h 51% 0.0 mm 177 W/m2
21:46 16.1 °C 5.9 °C 1022.9 hPa NNW 8.7 km/h 18.3 km/h 51% 0.0 mm 168 W/m2
21:51 16.2 °C 6.1 °C 1022.9 hPa NNW 9.7 km/h 17.2 km/h 51% 0.0 mm 162 W/m2
21:56 16.0 °C 6.2 °C 1022.6 hPa NW 6.1 km/h 17.2 km/h 52% 0.0 mm 153 W/m2
22:06 15.6 °C 6.1 °C 1022.6 hPa NW 8.7 km/h 19.5 km/h 53% 0.0 mm 154 W/m2
22:11 15.7 °C 6.2 °C 1022.9 hPa NW 8.7 km/h 19.5 km/h 53% 0.0 mm 155 W/m2
22:16 15.6 °C 6.1 °C 1022.9 hPa NW 8.7 km/h 17.2 km/h 53% 0.0 mm 151 W/m2
22:21 15.6 °C 6.1 °C 1022.6 hPa NW 11.1 km/h 17.2 km/h 53% 0.0 mm 151 W/m2
22:26 15.7 °C 6.4 °C 1022.6 hPa NNW 9.7 km/h 14.8 km/h 54% 0.0 mm 142 W/m2
22:31 15.7 °C 6.4 °C 1022.6 hPa NW 8.7 km/h 15.8 km/h 54% 0.0 mm 134 W/m2
22:41 15.5 °C 5.9 °C 1022.6 hPa NNW 13.4 km/h 18.3 km/h 53% 0.0 mm 132 W/m2
22:46 15.5 °C 5.9 °C 1022.6 hPa NNW 7.2 km/h 18.3 km/h 53% 0.0 mm 127 W/m2
22:51 15.4 °C 5.9 °C 1022.6 hPa NNW 7.2 km/h 18.3 km/h 53% 0.0 mm 122 W/m2
22:56 15.4 °C 6.2 °C 1022.6 hPa NNW 8.7 km/h 14.8 km/h 54% 0.0 mm 122 W/m2
23:01 15.4 °C 6.2 °C 1022.6 hPa NNW 7.2 km/h 15.8 km/h 54% 0.0 mm 117 W/m2
23:06 15.3 °C 5.8 °C 1022.6 hPa NNW 7.2 km/h 25.6 km/h 53% 0.0 mm 108 W/m2
23:11 15.2 °C 5.9 °C 1022.9 hPa NNW 8.7 km/h 25.6 km/h 54% 0.0 mm 106 W/m2
23:16 15.2 °C 5.9 °C 1022.9 hPa NNW 7.2 km/h 14.8 km/h 54% 0.0 mm 103 W/m2
23:21 15.1 °C 5.9 °C 1022.9 hPa NNW 7.2 km/h 14.8 km/h 54% 0.0 mm 98 W/m2
23:26 15.0 °C 6.1 °C 1022.9 hPa NNW 9.7 km/h 19.5 km/h 55% 0.0 mm 95 W/m2
23:31 14.9 °C 6.2 °C 1022.9 hPa NNW 6.1 km/h 19.5 km/h 56% 0.0 mm 88 W/m2
23:36 14.9 °C 6.4 °C 1022.9 hPa North 5.0 km/h 14.8 km/h 57% 0.0 mm 82 W/m2
23:41 14.8 °C 6.6 °C 1022.9 hPa North 7.2 km/h 14.8 km/h 58% 0.0 mm 73 W/m2
23:46 14.7 °C 6.3 °C 1022.9 hPa North 7.2 km/h 20.9 km/h 57% 0.0 mm 63 W/m2
23:51 14.5 °C 6.1 °C 1022.6 hPa North 8.7 km/h 20.9 km/h 57% 0.0 mm 57 W/m2
23:56 14.4 °C 6.2 °C 1022.6 hPa North 6.1 km/h 17.2 km/h 58% 0.0 mm 49 W/m2
Northern Hawkes Bay. New Zealand Historic Data
Compliments of Weather Underground - 2 mb